Terminal Aerodrome Forecast
Issued by NWS Bismarck, ND

Home | Current Version | Previous Version | Text Only | Print | Product List | Glossary On
Versions: 1 2 3 4 5 6 7 8 9 10 11 12 13 14 15 16 17
000
FTUS43 KBIS 260746 AAB
TAFBIS
TAF AMD
KBIS 260746Z 2608/2706 27009KT P6SM SCT090
     FM261000 27012KT P6SM OVC050
     FM261400 29015G23KT P6SM BKN045
     FM261900 29015G22KT P6SM SCT050 SCT090
     FM270200 30006KT P6SM FEW060 FEW130=

USA.gov is the U.S. government's official web portal to all federal, state and local government web resources and services.